createdAt,value
2016-12-20T00:00:01.762Z,21.65
2016-12-20T00:00:29.902Z,21.65
2016-12-20T00:00:58.147Z,21.55
2016-12-20T00:01:26.342Z,21.59
2016-12-20T00:01:54.376Z,21.63
2016-12-20T00:02:22.610Z,21.5
2016-12-20T00:03:33.833Z,21.47
2016-12-20T00:04:02.035Z,21.53
2016-12-20T00:04:30.000Z,21.48
2016-12-20T00:04:58.243Z,21.43
2016-12-20T00:05:26.264Z,21.44
2016-12-20T00:05:54.288Z,21.48
2016-12-20T00:06:22.528Z,21.44
2016-12-20T00:06:50.771Z,21.47
2016-12-20T00:07:19.155Z,21.48
2016-12-20T00:07:47.287Z,21.35
2016-12-20T00:08:15.331Z,21.41
2016-12-20T00:09:26.280Z,21.44
2016-12-20T00:09:54.574Z,21.5
2016-12-20T00:10:22.635Z,21.45
2016-12-20T00:10:50.720Z,21.45
2016-12-20T00:11:18.930Z,21.41
2016-12-20T00:11:47.241Z,21.48
2016-12-20T00:12:15.382Z,21.38
2016-12-20T00:12:43.722Z,21.44
2016-12-20T00:13:12.103Z,21.45
2016-12-20T00:13:40.319Z,21.45
2016-12-20T00:14:08.644Z,21.47
2016-12-20T00:15:19.777Z,21.44
2016-12-20T00:15:47.978Z,21.53
2016-12-20T00:16:16.126Z,21.45
2016-12-20T00:16:44.359Z,21.63
2016-12-20T00:17:12.383Z,21.63
2016-12-20T00:17:40.589Z,21.56
2016-12-20T00:18:08.452Z,21.66
2016-12-20T00:18:36.607Z,21.66
2016-12-20T00:19:04.805Z,21.55
2016-12-20T00:19:32.831Z,21.53
2016-12-20T00:20:01.069Z,21.58
2016-12-20T00:21:12.198Z,21.63
2016-12-20T00:21:40.393Z,21.62
2016-12-20T00:22:08.533Z,21.55
2016-12-20T00:22:36.683Z,21.6
2016-12-20T00:23:04.978Z,21.58
2016-12-20T00:23:33.183Z,21.58
2016-12-20T00:24:01.326Z,21.5
2016-12-20T00:24:29.475Z,21.48
2016-12-20T00:24:57.668Z,21.48
2016-12-20T00:25:25.967Z,21.5
2016-12-20T00:25:54.110Z,21.5
2016-12-20T00:27:05.425Z,21.45
2016-12-20T00:27:33.442Z,21.44
2016-12-20T00:28:01.781Z,21.48
2016-12-20T00:28:30.119Z,21.44
2016-12-20T00:28:58.233Z,21.43
2016-12-20T00:29:26.347Z,21.47
2016-12-20T00:29:54.589Z,21.37
2016-12-20T00:30:22.837Z,21.4
2016-12-20T00:30:51.217Z,21.44
2016-12-20T00:31:19.425Z,21.4
2016-12-20T00:31:47.864Z,21.4
2016-12-20T00:32:59.097Z,21.38
2016-12-20T00:33:27.112Z,21.34
2016-12-20T00:33:55.448Z,21.29
2016-12-20T00:34:23.687Z,21.34
2016-12-20T00:34:51.987Z,21.26
2016-12-20T00:35:20.192Z,21.32
2016-12-20T00:35:48.427Z,21.28
2016-12-20T00:36:16.669Z,21.3
2016-12-20T00:36:45.051Z,21.34
2016-12-20T00:37:13.355Z,21.35
2016-12-20T00:37:41.588Z,21.26
2016-12-20T00:38:52.715Z,21.26
2016-12-20T00:39:20.733Z,21.26
2016-12-20T00:39:49.067Z,21.28
2016-12-20T00:40:17.221Z,21.26
2016-12-20T00:40:45.428Z,21.28
2016-12-20T00:41:13.449Z,21.25
2016-12-20T00:41:41.687Z,21.2
2016-12-20T00:42:09.750Z,21.19
2016-12-20T00:42:37.948Z,21.16
2016-12-20T00:43:05.979Z,21.13
2016-12-20T00:43:34.123Z,21.11
2016-12-20T00:44:45.157Z,21.18
2016-12-20T00:45:13.169Z,21.16
2016-12-20T00:45:41.410Z,21.16
2016-12-20T00:46:09.650Z,21.13
2016-12-20T00:46:37.857Z,21.13
2016-12-20T00:47:05.967Z,21.11
2016-12-20T00:47:34.106Z,21.2
2016-12-20T00:48:02.443Z,21.14
2016-12-20T00:48:30.639Z,21.11
2016-12-20T00:48:58.940Z,21.18
2016-12-20T00:49:27.168Z,21.1
2016-12-20T00:50:38.296Z,21.05
2016-12-20T00:51:06.496Z,21.03
2016-12-20T00:51:34.828Z,21.07
2016-12-20T00:52:03.070Z,21.01
2016-12-20T00:52:31.367Z,21.01
2016-12-20T00:52:59.576Z,21.03
2016-12-20T00:53:27.810Z,21.03
2016-12-20T00:53:56.154Z,21.03
2016-12-20T00:54:24.440Z,20.97
2016-12-20T00:54:52.659Z,21.04
2016-12-20T00:55:20.985Z,20.97
2016-12-20T00:56:32.306Z,20.95
2016-12-20T00:57:00.502Z,20.98
2016-12-20T00:57:28.838Z,20.98
2016-12-20T00:57:57.085Z,21.04
2016-12-20T00:58:25.381Z,21.01
2016-12-20T00:58:53.496Z,21.01
2016-12-20T00:59:21.734Z,21.01
2016-12-20T00:59:49.985Z,21.03
2016-12-20T01:00:18.360Z,20.97
2016-12-20T01:00:46.666Z,20.97
2016-12-20T01:01:14.900Z,21.04
2016-12-20T01:02:25.938Z,20.97
2016-12-20T01:02:54.039Z,20.98
2016-12-20T01:03:22.279Z,20.92
2016-12-20T01:03:50.427Z,20.93
2016-12-20T01:04:18.731Z,21.01
2016-12-20T01:04:46.660Z,20.98
2016-12-20T01:05:14.806Z,20.95
2016-12-20T01:05:43.052Z,21.01
2016-12-20T01:06:11.242Z,20.93
2016-12-20T01:06:39.457Z,20.93
2016-12-20T01:07:07.688Z,21.04
2016-12-20T01:08:19.009Z,21.01
2016-12-20T01:08:47.203Z,21.01
2016-12-20T01:09:15.352Z,21.01
2016-12-20T01:09:43.500Z,20.95
2016-12-20T01:10:11.717Z,21.07
2016-12-20T01:10:39.843Z,21.05
2016-12-20T01:11:08.059Z,20.98
2016-12-20T01:11:36.216Z,21.03
2016-12-20T01:12:04.501Z,20.97
2016-12-20T01:12:32.518Z,21.03
2016-12-20T01:13:00.564Z,21.01
2016-12-20T01:14:11.785Z,21.05
2016-12-20T01:14:39.805Z,21.07
2016-12-20T01:15:07.954Z,21
2016-12-20T01:15:36.294Z,21.03
2016-12-20T01:16:04.501Z,21.01
2016-12-20T01:16:32.617Z,21.01
2016-12-20T01:17:00.856Z,21.05
2016-12-20T01:17:29.005Z,21.05
2016-12-20T01:17:57.191Z,21.01
2016-12-20T01:18:25.490Z,21.03
2016-12-20T01:18:53.730Z,21.1
2016-12-20T01:20:04.858Z,21.05
2016-12-20T01:20:33.054Z,21.04
2016-12-20T01:21:01.383Z,21
2016-12-20T01:21:29.621Z,21.1
2016-12-20T01:21:57.736Z,21.13
2016-12-20T01:22:25.665Z,21.18
2016-12-20T01:22:53.714Z,21.2
2016-12-20T01:23:21.676Z,21.11
2016-12-20T01:23:49.960Z,21.11
2016-12-20T01:24:17.985Z,21.2
2016-12-20T01:24:46.029Z,21.16
2016-12-20T01:25:57.245Z,21.11
2016-12-20T01:26:25.448Z,21.23
2016-12-20T01:26:53.783Z,21.19
2016-12-20T01:27:22.111Z,21.2
2016-12-20T01:27:50.319Z,21.16
2016-12-20T01:28:18.526Z,21.19
2016-12-20T01:28:46.847Z,21.22
2016-12-20T01:29:14.907Z,21.18
2016-12-20T01:29:43.282Z,21.25
2016-12-20T01:30:11.492Z,21.2
2016-12-20T01:30:39.723Z,21.14
2016-12-20T01:31:50.947Z,21.16
2016-12-20T01:32:19.241Z,21.19
2016-12-20T01:32:47.573Z,21.11
2016-12-20T01:33:15.908Z,21.19
2016-12-20T01:33:44.117Z,21.14
2016-12-20T01:34:12.321Z,21.19
2016-12-20T01:34:40.557Z,21.19
2016-12-20T01:35:08.894Z,21.18
2016-12-20T01:35:37.172Z,21.14
2016-12-20T01:36:05.391Z,21.2
2016-12-20T01:36:33.711Z,21.19
2016-12-20T01:37:45.024Z,21.19
2016-12-20T01:38:13.306Z,21.14
2016-12-20T01:38:41.450Z,21.19
2016-12-20T01:39:10.142Z,21.14
2016-12-20T01:39:38.256Z,21.2
2016-12-20T01:40:06.274Z,21.19
2016-12-20T01:40:34.504Z,21.18
2016-12-20T01:41:02.562Z,21.2
2016-12-20T01:41:30.941Z,21.18
2016-12-20T01:41:59.057Z,21.14
2016-12-20T01:42:27.294Z,21.2
2016-12-20T01:43:38.610Z,21.16
2016-12-20T01:44:06.802Z,21.01
2016-12-20T01:44:34.761Z,21.16
2016-12-20T01:45:02.907Z,21.08
2016-12-20T01:45:31.210Z,21.05
2016-12-20T01:45:59.412Z,21.05
2016-12-20T01:46:27.457Z,20.98
2016-12-20T01:46:55.609Z,21.05
2016-12-20T01:47:23.981Z,21.08
2016-12-20T01:47:52.099Z,21.13
2016-12-20T01:48:20.430Z,21.16
2016-12-20T01:49:31.557Z,21.18
2016-12-20T01:49:59.753Z,21.14
2016-12-20T01:50:27.993Z,21.14
2016-12-20T01:50:56.141Z,21.11
2016-12-20T01:51:24.258Z,21.14
2016-12-20T01:51:52.367Z,21.16
2016-12-20T01:52:20.507Z,21.05
2016-12-20T01:52:48.663Z,21.16
2016-12-20T01:53:16.947Z,21.16
2016-12-20T01:53:45.091Z,21.13
2016-12-20T01:54:13.322Z,21.13
2016-12-20T01:55:24.362Z,21.14
2016-12-20T01:55:52.375Z,21.19
2016-12-20T01:56:20.517Z,21.13
2016-12-20T01:56:48.755Z,21.18
2016-12-20T01:57:16.597Z,21.19
2016-12-20T01:57:44.799Z,21.19
2016-12-20T01:58:12.852Z,21.19
2016-12-20T01:58:41.002Z,21.14
2016-12-20T01:59:09.286Z,21.08
2016-12-20T01:59:37.499Z,21.14
2016-12-20T02:00:05.641Z,21.01
2016-12-20T02:01:16.679Z,21.11
2016-12-20T02:01:44.687Z,21.13
2016-12-20T02:02:12.931Z,21.16
2016-12-20T02:02:41.219Z,21.13
2016-12-20T02:03:09.429Z,21.14
2016-12-20T02:03:37.534Z,21.16
2016-12-20T02:04:05.674Z,21.16
2016-12-20T02:04:33.919Z,21.07
2016-12-20T02:05:02.204Z,21.11
2016-12-20T02:05:30.504Z,21.18
2016-12-20T02:05:58.643Z,21.07
2016-12-20T02:07:09.861Z,21
2016-12-20T02:07:38.060Z,21.03
2016-12-20T02:08:06.303Z,21.01
2016-12-20T02:08:34.532Z,21.14
2016-12-20T02:09:02.651Z,21.07
2016-12-20T02:09:30.668Z,21.1
2016-12-20T02:09:58.915Z,21.16
2016-12-20T02:10:27.166Z,21.16
2016-12-20T02:10:55.354Z,21.11
2016-12-20T02:11:23.653Z,21.14
2016-12-20T02:11:51.882Z,21.16
2016-12-20T02:13:02.915Z,21.13
2016-12-20T02:13:31.111Z,21.13
2016-12-20T02:13:59.351Z,21.11
2016-12-20T02:14:27.591Z,21.14
2016-12-20T02:14:55.707Z,21.16
2016-12-20T02:15:23.633Z,21.16
2016-12-20T02:15:51.780Z,21.18
2016-12-20T02:16:19.926Z,21.13
2016-12-20T02:16:48.029Z,21.18
2016-12-20T02:17:16.273Z,21.13
2016-12-20T02:17:44.598Z,21.2
2016-12-20T02:18:55.821Z,21.23
2016-12-20T02:19:23.929Z,21.19
2016-12-20T02:19:52.168Z,21.16
2016-12-20T02:20:20.316Z,21.19
2016-12-20T02:20:48.526Z,21.19
2016-12-20T02:21:16.638Z,21.16
2016-12-20T02:21:45.125Z,21.13
2016-12-20T02:22:13.473Z,21.13
2016-12-20T02:22:41.746Z,21.16
2016-12-20T02:23:09.860Z,21.14
2016-12-20T02:23:37.997Z,21.16
2016-12-20T02:24:49.120Z,21.13
2016-12-20T02:25:17.226Z,21.28
2016-12-20T02:25:45.472Z,21.25
2016-12-20T02:26:13.716Z,21.14
2016-12-20T02:26:41.923Z,21.3
2016-12-20T02:27:10.033Z,21.32
2016-12-20T02:27:38.175Z,21.25
2016-12-20T02:28:06.427Z,21.29
2016-12-20T02:28:34.803Z,21.28
2016-12-20T02:29:02.921Z,21.14
2016-12-20T02:29:31.248Z,21.18
2016-12-20T02:30:42.479Z,21.28
2016-12-20T02:31:10.491Z,21.19
2016-12-20T02:31:38.730Z,21.16
2016-12-20T02:32:07.063Z,21.26
2016-12-20T02:32:35.276Z,21.19
2016-12-20T02:33:03.389Z,21.19
2016-12-20T02:33:31.552Z,21.18
2016-12-20T02:33:59.706Z,21.23
2016-12-20T02:34:27.709Z,21.3
2016-12-20T02:34:56.016Z,21.3
2016-12-20T02:35:24.335Z,21.25
2016-12-20T02:36:35.464Z,21.28
2016-12-20T02:37:03.761Z,21.32
2016-12-20T02:37:32.086Z,21.32
2016-12-20T02:38:00.333Z,21.22
2016-12-20T02:38:28.448Z,21.28
2016-12-20T02:38:56.558Z,21.25
2016-12-20T02:39:24.610Z,21.25
2016-12-20T02:39:52.792Z,21.14
2016-12-20T02:40:20.976Z,21.18
2016-12-20T02:40:49.092Z,21.16
2016-12-20T02:41:17.418Z,21.18
2016-12-20T02:42:28.645Z,21.16
2016-12-20T02:42:56.751Z,21.1
2016-12-20T02:43:25.654Z,21.16
2016-12-20T02:43:53.898Z,21.16
2016-12-20T02:44:22.195Z,21.13
2016-12-20T02:44:50.401Z,21.18
2016-12-20T02:45:18.632Z,21.18
2016-12-20T02:45:46.971Z,21.16
2016-12-20T02:46:15.257Z,21.19
2016-12-20T02:46:43.275Z,21.16
2016-12-20T02:47:11.408Z,21.16
2016-12-20T02:48:22.545Z,21.28
2016-12-20T02:48:50.651Z,21.18
2016-12-20T02:49:18.985Z,21.28
2016-12-20T02:49:47.232Z,21.26
2016-12-20T02:50:15.430Z,21.2
2016-12-20T02:50:43.729Z,21.18
2016-12-20T02:51:11.968Z,21.28
2016-12-20T02:51:40.305Z,21.23
2016-12-20T02:52:08.497Z,21.28
2016-12-20T02:52:36.611Z,21.2
2016-12-20T02:53:04.840Z,21.22
2016-12-20T02:54:16.061Z,21.14
2016-12-20T02:54:44.254Z,21.26
2016-12-20T02:55:12.488Z,21.13
2016-12-20T02:55:40.821Z,21.25
2016-12-20T02:56:09.026Z,21.2
2016-12-20T02:56:37.229Z,21.23
2016-12-20T02:57:05.456Z,21.23
2016-12-20T02:57:33.613Z,21.19
2016-12-20T02:58:01.899Z,21.23
2016-12-20T02:58:30.202Z,21.2
2016-12-20T02:58:58.527Z,21.26
2016-12-20T03:00:09.469Z,21.19
2016-12-20T03:00:37.573Z,21.26
2016-12-20T03:01:05.723Z,21.19
2016-12-20T03:01:34.052Z,21.19
2016-12-20T03:02:02.071Z,21.14
2016-12-20T03:02:30.185Z,21.19
2016-12-20T03:02:58.327Z,21.19
2016-12-20T03:03:26.479Z,21.26
2016-12-20T03:03:54.672Z,21.28
2016-12-20T03:04:22.884Z,21.29
2016-12-20T03:04:51.120Z,21.14
2016-12-20T03:06:02.251Z,21.25
2016-12-20T03:06:30.260Z,21.22
2016-12-20T03:06:58.498Z,21.26
2016-12-20T03:07:26.749Z,21.25
2016-12-20T03:07:54.760Z,21.28
2016-12-20T03:08:22.961Z,21.28
2016-12-20T03:08:50.915Z,21.14
2016-12-20T03:09:18.973Z,21.25
2016-12-20T03:09:47.347Z,21.29
2016-12-20T03:10:15.557Z,21.28
2016-12-20T03:10:43.692Z,21.16
2016-12-20T03:11:54.822Z,21.26
2016-12-20T03:12:23.014Z,21.18
2016-12-20T03:12:51.161Z,21.19
2016-12-20T03:13:19.403Z,21.13
2016-12-20T03:13:47.424Z,21.18
2016-12-20T03:14:15.718Z,21.26
2016-12-20T03:14:43.768Z,21.14
2016-12-20T03:15:12.105Z,21.19
2016-12-20T03:15:40.394Z,21.16
2016-12-20T03:16:08.508Z,21.18
2016-12-20T03:16:36.737Z,21.25
2016-12-20T03:17:47.773Z,21.26
2016-12-20T03:18:15.966Z,21.16
2016-12-20T03:18:44.298Z,21.22
2016-12-20T03:19:12.535Z,21.13
2016-12-20T03:19:40.464Z,21.23
2016-12-20T03:20:08.760Z,21.14
2016-12-20T03:20:36.996Z,21.13
2016-12-20T03:21:05.338Z,21.19
2016-12-20T03:21:33.618Z,21.23
2016-12-20T03:22:01.924Z,21.18
2016-12-20T03:22:30.246Z,21.22
2016-12-20T03:23:41.375Z,21.16
2016-12-20T03:24:09.667Z,21.25
2016-12-20T03:24:37.807Z,21.28
2016-12-20T03:25:06.048Z,21.16
2016-12-20T03:25:34.163Z,21.14
2016-12-20T03:26:02.197Z,21.2
2016-12-20T03:26:30.428Z,21.22
2016-12-20T03:26:58.767Z,21.2
2016-12-20T03:27:27.049Z,21.22
2016-12-20T03:27:55.257Z,21.19
2016-12-20T03:28:23.577Z,21.18
2016-12-20T03:29:34.892Z,21.2
2016-12-20T03:30:03.000Z,21.18
2016-12-20T03:30:31.246Z,21.11
2016-12-20T03:30:59.580Z,21.11
2016-12-20T03:31:27.693Z,21.18
2016-12-20T03:31:55.708Z,21.18
2016-12-20T03:32:23.752Z,21.18
2016-12-20T03:32:52.084Z,21.16
2016-12-20T03:33:20.460Z,21.16
2016-12-20T03:33:48.578Z,21.18
2016-12-20T03:34:16.810Z,21.14
2016-12-20T03:35:28.127Z,21.13
2016-12-20T03:35:56.224Z,21.07
2016-12-20T03:36:24.461Z,21.14
2016-12-20T03:36:52.789Z,21.08
2016-12-20T03:37:21.086Z,21.01
2016-12-20T03:37:49.101Z,21.07
2016-12-20T03:38:17.426Z,20.98
2016-12-20T03:38:45.481Z,21.03
2016-12-20T03:39:13.844Z,21
2016-12-20T03:39:42.147Z,20.92
2016-12-20T03:40:10.371Z,20.93
2016-12-20T03:41:21.683Z,21
2016-12-20T03:41:49.880Z,21.04
2016-12-20T03:42:18.028Z,20.97
2016-12-20T03:42:46.083Z,20.93
2016-12-20T03:43:14.195Z,20.88
2016-12-20T03:43:42.397Z,20.88
2016-12-20T03:44:10.629Z,20.8
2016-12-20T03:44:38.870Z,20.89
2016-12-20T03:45:07.059Z,20.74
2016-12-20T03:45:35.177Z,20.65
2016-12-20T03:46:03.411Z,20.61
2016-12-20T03:47:14.626Z,20.52
2016-12-20T03:47:42.817Z,20.52
2016-12-20T03:48:11.060Z,20.48
2016-12-20T03:48:39.305Z,20.46
2016-12-20T03:49:07.422Z,20.37
2016-12-20T03:49:35.529Z,20.44
2016-12-20T03:50:03.674Z,20.34
2016-12-20T03:50:31.922Z,20.33
2016-12-20T03:51:00.113Z,20.23
2016-12-20T03:51:28.132Z,20.22
2016-12-20T03:51:56.361Z,20.19
2016-12-20T03:53:07.678Z,20.25
2016-12-20T03:53:35.967Z,20.25
2016-12-20T03:54:04.207Z,20.23
2016-12-20T03:54:32.442Z,20.14
2016-12-20T03:55:00.557Z,20.18
2016-12-20T03:55:28.856Z,20.22
2016-12-20T03:55:57.092Z,20.18
2016-12-20T03:56:25.333Z,20.14
2016-12-20T03:56:53.614Z,20.22
2016-12-20T03:57:21.827Z,20.18
2016-12-20T03:57:50.151Z,20.17
2016-12-20T03:59:01.282Z,20.14
2016-12-20T03:59:29.478Z,20.18
2016-12-20T03:59:57.715Z,20.19
2016-12-20T04:00:26.053Z,20.14
2016-12-20T04:00:54.078Z,20.11
2016-12-20T04:01:22.371Z,20.12
2016-12-20T04:01:50.513Z,20.19
2016-12-20T04:02:18.758Z,20.17
2016-12-20T04:02:47.139Z,20.17
2016-12-20T04:03:15.260Z,20.19
2016-12-20T04:03:43.402Z,20.12
2016-12-20T04:04:54.716Z,20.14
2016-12-20T04:05:23.003Z,20.18
2016-12-20T04:05:51.334Z,20.17
2016-12-20T04:06:19.670Z,20.15
2016-12-20T04:06:47.873Z,20.23
2016-12-20T04:07:16.170Z,20.22
2016-12-20T04:07:44.404Z,20.19
2016-12-20T04:08:12.741Z,20.23
2016-12-20T04:08:41.038Z,20.19
2016-12-20T04:09:09.340Z,20.22
2016-12-20T04:09:37.571Z,20.25
2016-12-20T04:10:48.513Z,20.18
2016-12-20T04:11:16.620Z,20.15
2016-12-20T04:11:44.951Z,20.19
2016-12-20T04:12:13.287Z,20.11
2016-12-20T04:12:41.584Z,20.17
2016-12-20T04:13:09.597Z,20.19
2016-12-20T04:13:37.828Z,20.14
2016-12-20T04:14:06.074Z,20.14
2016-12-20T04:14:34.353Z,20.12
2016-12-20T04:15:02.556Z,20.19
2016-12-20T04:15:30.799Z,20.19
2016-12-20T04:16:42.118Z,20.18
2016-12-20T04:17:10.312Z,20.23
2016-12-20T04:17:38.547Z,20.22
2016-12-20T04:18:06.691Z,20.23
2016-12-20T04:18:34.990Z,20.22
2016-12-20T04:19:03.101Z,20.33
2016-12-20T04:19:31.337Z,20.22
2016-12-20T04:19:59.589Z,20.34
2016-12-20T04:20:27.597Z,20.3
2016-12-20T04:20:55.804Z,20.32
2016-12-20T04:21:23.944Z,20.36
2016-12-20T04:22:34.980Z,20.34
2016-12-20T04:23:03.176Z,20.39
2016-12-20T04:23:31.322Z,20.39
2016-12-20T04:23:59.655Z,20.3
2016-12-20T04:24:27.683Z,20.36
2016-12-20T04:24:55.984Z,20.39
2016-12-20T04:25:24.313Z,20.37
2016-12-20T04:25:52.377Z,20.41
2016-12-20T04:26:20.562Z,20.36
2016-12-20T04:26:48.678Z,20.37
2016-12-20T04:27:16.914Z,20.36
2016-12-20T04:28:28.231Z,20.39
2016-12-20T04:28:56.431Z,20.44
2016-12-20T04:29:24.765Z,20.32
2016-12-20T04:29:53.101Z,20.41
2016-12-20T04:30:21.306Z,20.37
2016-12-20T04:30:49.324Z,20.44
2016-12-20T04:31:17.564Z,20.29
2016-12-20T04:31:45.623Z,20.33
2016-12-20T04:32:13.902Z,20.34
2016-12-20T04:32:42.116Z,20.32
2016-12-20T04:33:10.254Z,20.32
2016-12-20T04:34:21.573Z,20.29
2016-12-20T04:34:49.858Z,20.26
2016-12-20T04:35:18.002Z,20.34
2016-12-20T04:35:46.059Z,20.33
2016-12-20T04:36:14.365Z,20.33
2016-12-20T04:36:42.472Z,20.29
2016-12-20T04:37:10.711Z,20.34
2016-12-20T04:37:38.953Z,20.32
2016-12-20T04:38:10.270Z,20.34
2016-12-20T04:38:38.398Z,20.34
2016-12-20T04:39:06.631Z,20.34
2016-12-20T04:40:17.669Z,20.33
2016-12-20T04:40:45.682Z,20.23
2016-12-20T04:41:13.922Z,20.25
2016-12-20T04:41:42.258Z,20.23
2016-12-20T04:42:10.372Z,20.17
2016-12-20T04:42:38.582Z,20.19
2016-12-20T04:43:06.717Z,20.18
2016-12-20T04:43:34.798Z,20.22
2016-12-20T04:44:02.998Z,20.15
2016-12-20T04:44:31.212Z,20.22
2016-12-20T04:44:59.354Z,20.17
2016-12-20T04:46:10.481Z,20.17
2016-12-20T04:46:38.677Z,20.25
2016-12-20T04:47:07.004Z,20.23
2016-12-20T04:47:35.157Z,20.23
2016-12-20T04:48:03.364Z,20.19
2016-12-20T04:48:31.474Z,20.19
2016-12-20T04:48:59.614Z,20.22
2016-12-20T04:49:27.859Z,20.26
2016-12-20T04:49:56.047Z,20.19
2016-12-20T04:50:24.258Z,20.34
2016-12-20T04:50:52.486Z,20.33
2016-12-20T04:52:03.527Z,20.33
2016-12-20T04:52:31.818Z,20.3
2016-12-20T04:52:59.967Z,20.26
2016-12-20T04:53:28.298Z,20.32
2016-12-20T04:53:56.414Z,20.18
2016-12-20T04:54:24.619Z,20.19
2016-12-20T04:54:52.950Z,20.17
2016-12-20T04:55:21.103Z,20.18
2016-12-20T04:55:49.392Z,20.19
2016-12-20T04:56:17.601Z,20.18
2016-12-20T04:56:45.821Z,20.23
2016-12-20T04:57:56.857Z,20.25
2016-12-20T04:58:25.050Z,20.22
2016-12-20T04:58:53.382Z,20.18
2016-12-20T04:59:21.542Z,20.23
2016-12-20T04:59:49.741Z,20.18
2016-12-20T05:00:17.671Z,20.12
2016-12-20T05:00:45.816Z,20.15
2016-12-20T05:01:13.972Z,20.17
2016-12-20T05:01:42.256Z,20.17
2016-12-20T05:02:10.304Z,20.14
2016-12-20T05:02:38.535Z,20.15
2016-12-20T05:03:49.770Z,20.19
2016-12-20T05:04:17.876Z,20.3
2016-12-20T05:04:46.025Z,20.32
2016-12-20T05:05:14.267Z,20.33
2016-12-20T05:05:42.383Z,20.39
2016-12-20T05:06:10.597Z,20.33
2016-12-20T05:06:38.827Z,20.34
2016-12-20T05:07:07.165Z,20.33
2016-12-20T05:07:35.445Z,20.36
2016-12-20T05:08:03.655Z,20.32
2016-12-20T05:08:31.797Z,20.39
2016-12-20T05:09:43.110Z,20.41
2016-12-20T05:10:11.399Z,20.42
2016-12-20T05:10:39.730Z,20.3
2016-12-20T05:11:07.972Z,20.32
2016-12-20T05:11:36.274Z,20.36
2016-12-20T05:12:04.383Z,20.37
2016-12-20T05:12:32.710Z,20.34
2016-12-20T05:13:00.958Z,20.32
2016-12-20T05:13:29.056Z,20.37
2016-12-20T05:13:57.273Z,20.39
2016-12-20T05:14:25.594Z,20.42
2016-12-20T05:15:36.814Z,20.36
2016-12-20T05:16:04.919Z,20.37
2016-12-20T05:16:33.252Z,20.46
2016-12-20T05:17:01.490Z,20.36
2016-12-20T05:17:29.696Z,20.41
2016-12-20T05:17:57.708Z,20.32
2016-12-20T05:18:26.036Z,20.41
2016-12-20T05:18:54.371Z,20.39
2016-12-20T05:19:22.479Z,20.34
2016-12-20T05:19:50.693Z,20.41
2016-12-20T05:20:18.833Z,20.48
2016-12-20T05:21:29.963Z,20.42
2016-12-20T05:21:58.158Z,20.33
2016-12-20T05:22:26.394Z,20.33
2016-12-20T05:22:54.734Z,20.3
2016-12-20T05:23:23.031Z,20.22
2016-12-20T05:23:51.327Z,20.22
2016-12-20T05:24:19.559Z,20.19
2016-12-20T05:24:47.711Z,20.15
2016-12-20T05:25:15.996Z,20.22
2016-12-20T05:25:44.204Z,20.18
2016-12-20T05:26:12.431Z,20.12
2016-12-20T05:27:23.650Z,20.12
2016-12-20T05:27:51.848Z,20.15
2016-12-20T05:28:20.174Z,20.11
2016-12-20T05:28:48.514Z,20.07
2016-12-20T05:29:16.625Z,19.97
2016-12-20T05:29:44.736Z,19.97
2016-12-20T05:30:13.065Z,19.94
2016-12-20T05:30:41.405Z,19.89
2016-12-20T05:31:09.597Z,19.93
2016-12-20T05:31:37.899Z,19.93
2016-12-20T05:32:06.129Z,19.89
2016-12-20T05:33:17.263Z,19.93
2016-12-20T05:33:45.457Z,19.87
2016-12-20T05:34:13.695Z,19.86
2016-12-20T05:34:42.034Z,19.81
2016-12-20T05:35:10.052Z,19.84
2016-12-20T05:35:38.160Z,19.82
2016-12-20T05:36:06.302Z,19.84
2016-12-20T05:36:34.641Z,19.82
2016-12-20T05:37:02.834Z,19.84
2016-12-20T05:37:31.041Z,19.82
2016-12-20T05:37:59.278Z,19.81
2016-12-20T05:39:10.519Z,19.81
2016-12-20T05:39:38.623Z,19.86
2016-12-20T05:40:06.955Z,19.82
2016-12-20T05:40:35.192Z,19.92
2016-12-20T05:41:03.396Z,19.89
2016-12-20T05:41:31.502Z,19.79
2016-12-20T05:41:59.832Z,19.82
2016-12-20T05:42:28.169Z,19.86
2016-12-20T05:42:56.452Z,19.84
2016-12-20T05:43:24.754Z,19.84
2016-12-20T05:43:52.986Z,19.82
2016-12-20T05:45:04.120Z,19.89
2016-12-20T05:45:32.414Z,19.89
2016-12-20T05:46:00.654Z,19.84
2016-12-20T05:46:28.987Z,19.84
2016-12-20T05:46:57.008Z,19.89
2016-12-20T05:47:25.299Z,19.81
2016-12-20T05:47:53.538Z,19.92
2016-12-20T05:48:21.872Z,19.79
2016-12-20T05:48:50.166Z,19.84
2016-12-20T05:49:18.286Z,19.82
2016-12-20T05:49:46.517Z,19.87
2016-12-20T05:50:57.837Z,19.77
2016-12-20T05:51:26.126Z,19.79
2016-12-20T05:51:54.270Z,19.78
2016-12-20T05:52:22.610Z,19.77
2016-12-20T05:52:50.722Z,19.77
2016-12-20T05:53:18.834Z,19.84
2016-12-20T05:53:47.159Z,19.86
2016-12-20T05:54:15.402Z,19.79
2016-12-20T05:54:43.780Z,19.81
2016-12-20T05:55:11.896Z,19.82
2016-12-20T05:55:40.036Z,19.86
2016-12-20T05:56:51.264Z,19.9
2016-12-20T05:57:19.370Z,19.84
2016-12-20T05:57:47.706Z,19.87
2016-12-20T05:58:16.044Z,19.9
2016-12-20T05:58:44.160Z,19.86
2016-12-20T05:59:12.366Z,19.78
2016-12-20T05:59:40.602Z,19.84
2016-12-20T06:00:08.845Z,19.75
2016-12-20T06:00:37.038Z,19.77
2016-12-20T06:01:05.337Z,19.75
2016-12-20T06:01:33.597Z,19.81
2016-12-20T06:02:44.758Z,19.78
2016-12-20T06:03:12.955Z,19.79
2016-12-20T06:03:41.198Z,19.77
2016-12-20T06:04:09.444Z,19.74
2016-12-20T06:04:37.561Z,19.78
2016-12-20T06:05:05.666Z,19.81
2016-12-20T06:05:33.630Z,19.81
2016-12-20T06:06:01.872Z,19.87
2016-12-20T06:06:30.071Z,19.89
2016-12-20T06:06:58.105Z,19.84
2016-12-20T06:07:26.419Z,19.82
2016-12-20T06:08:37.548Z,19.82
2016-12-20T06:09:05.840Z,19.87
2016-12-20T06:09:34.078Z,19.82
2016-12-20T06:10:02.233Z,19.89
2016-12-20T06:10:30.249Z,19.78
2016-12-20T06:10:58.547Z,19.79
2016-12-20T06:11:26.877Z,19.71
2016-12-20T06:11:55.119Z,19.74
2016-12-20T06:12:23.217Z,19.71
2016-12-20T06:12:51.333Z,19.75
2016-12-20T06:13:19.656Z,19.77
2016-12-20T06:14:30.973Z,19.68
2016-12-20T06:14:59.077Z,19.75
2016-12-20T06:15:27.413Z,19.77
2016-12-20T06:15:55.751Z,19.62
2016-12-20T06:16:23.863Z,19.7
2016-12-20T06:16:52.159Z,19.75
2016-12-20T06:17:20.487Z,19.77
2016-12-20T06:17:48.641Z,19.89
2016-12-20T06:18:16.747Z,19.82
2016-12-20T06:18:45.050Z,19.77
2016-12-20T06:19:13.279Z,19.79
2016-12-20T06:20:24.402Z,19.84
2016-12-20T06:20:52.600Z,19.9
2016-12-20T06:21:20.931Z,19.74
2016-12-20T06:21:49.175Z,19.74
2016-12-20T06:22:17.287Z,19.77
2016-12-20T06:22:45.493Z,19.81
2016-12-20T06:23:13.823Z,19.68
2016-12-20T06:23:42.064Z,19.74
2016-12-20T06:24:10.343Z,19.77
2016-12-20T06:24:38.646Z,19.67
2016-12-20T06:25:06.699Z,19.68
2016-12-20T06:26:17.929Z,19.68
2016-12-20T06:26:46.221Z,19.62
2016-12-20T06:27:14.450Z,19.6
2016-12-20T06:27:42.689Z,19.67
2016-12-20T06:28:10.895Z,19.7
2016-12-20T06:28:39.198Z,19.64
2016-12-20T06:29:07.343Z,19.77
2016-12-20T06:29:35.586Z,19.71
2016-12-20T06:30:03.962Z,19.64
2016-12-20T06:30:32.260Z,19.64
2016-12-20T06:31:00.588Z,19.74
2016-12-20T06:32:11.904Z,19.77
2016-12-20T06:32:40.196Z,19.67
2016-12-20T06:33:08.339Z,19.72
2016-12-20T06:33:36.589Z,19.77
2016-12-20T06:34:04.699Z,19.74
2016-12-20T06:34:32.809Z,19.75
2016-12-20T06:35:00.952Z,19.67
2016-12-20T06:35:29.010Z,19.67
2016-12-20T06:35:57.299Z,19.71
2016-12-20T06:36:25.420Z,19.68
2016-12-20T06:36:53.742Z,19.78
2016-12-20T06:38:04.965Z,19.79
2016-12-20T06:38:33.070Z,19.81
2016-12-20T06:39:01.219Z,19.87
2016-12-20T06:39:29.554Z,19.89
2016-12-20T06:39:57.762Z,19.82
2016-12-20T06:40:25.967Z,19.81
2016-12-20T06:40:54.114Z,19.77
2016-12-20T06:41:22.357Z,19.82
2016-12-20T06:41:50.639Z,19.84
2016-12-20T06:42:18.755Z,19.84
2016-12-20T06:42:46.984Z,19.86
2016-12-20T06:43:58.300Z,19.82
2016-12-20T06:44:26.594Z,19.79
2016-12-20T06:44:54.922Z,19.86
2016-12-20T06:45:23.258Z,19.72
2016-12-20T06:45:51.470Z,19.72
2016-12-20T06:46:19.673Z,19.75
2016-12-20T06:46:47.815Z,19.74
2016-12-20T06:47:16.063Z,19.68
2016-12-20T06:47:44.438Z,19.68
2016-12-20T06:48:12.648Z,19.59
2016-12-20T06:48:40.973Z,19.57
2016-12-20T06:49:52.287Z,19.59
2016-12-20T06:50:20.575Z,19.59
2016-12-20T06:50:48.906Z,19.6
2016-12-20T06:51:17.238Z,19.57
2016-12-20T06:51:45.539Z,19.63
2016-12-20T06:52:13.740Z,19.53
2016-12-20T06:52:41.882Z,19.57
2016-12-20T06:53:10.226Z,19.64
2016-12-20T06:53:38.597Z,19.56
2016-12-20T06:54:06.902Z,19.62